Terminal Aerodrome Forecast
Issued by NWS

Home | Current Version | Previous Version | Text Only | Print | Product List | Glossary On
Versions: 1 2 3 4 5 6 7 8 9 10 11 12 13 14 15 16 17 18 19 20 21 22 23 24
000
FTUS42 KJAX 012326
TAFVQQ
TAF
KVQQ 012326Z 0200/0224 24007KT P6SM -RA VCTS SCT040CB SCT080 BKN200
      TEMPO 0200/0202 VRB10G20KT 3SM TSRA BKN030CB
     FM020200 22005KT P6SM SCT080 BKN250
     FM020700 VRB02KT 2SM BR SCT005 SCT250
     FM021300 23006KT P6SM SCT030 SCT100 SCT250
     FM021700 20006KT P6SM VCTS SCT035CB=

USA.gov is the U.S. government's official web portal to all federal, state and local government web resources and services.